sensor_id;sensor_type;location;lat;lon;timestamp;P1;durP1;ratioP1;P2;durP2;ratioP2
17983;SDS011;9117;52.420;20.728;2023-04-24T00:00:36;19.08;;;9.98;;
17983;SDS011;9117;52.420;20.728;2023-04-24T00:03:08;20.25;;;10.38;;
17983;SDS011;9117;52.420;20.728;2023-04-24T00:05:37;14.85;;;9.63;;
17983;SDS011;9117;52.420;20.728;2023-04-24T00:08:07;16.95;;;9.77;;
17983;SDS011;9117;52.420;20.728;2023-04-24T00:10:35;18.42;;;10.40;;
17983;SDS011;9117;52.420;20.728;2023-04-24T00:13:04;17.73;;;10.55;;
17983;SDS011;9117;52.420;20.728;2023-04-24T00:15:32;17.77;;;10.30;;
17983;SDS011;9117;52.420;20.728;2023-04-24T00:18:00;16.75;;;10.23;;
17983;SDS011;9117;52.420;20.728;2023-04-24T00:20:30;17.77;;;10.90;;
17983;SDS011;9117;52.420;20.728;2023-04-24T00:22:59;19.33;;;10.00;;
17983;SDS011;9117;52.420;20.728;2023-04-24T00:25:27;19.17;;;10.15;;
17983;SDS011;9117;52.420;20.728;2023-04-24T00:27:56;15.27;;;10.05;;
17983;SDS011;9117;52.420;20.728;2023-04-24T00:30:24;21.38;;;11.20;;
17983;SDS011;9117;52.420;20.728;2023-04-24T00:32:52;19.52;;;9.90;;
17983;SDS011;9117;52.420;20.728;2023-04-24T00:35:20;16.17;;;9.90;;
17983;SDS011;9117;52.420;20.728;2023-04-24T00:37:51;16.17;;;10.38;;
17983;SDS011;9117;52.420;20.728;2023-04-24T00:40:19;20.50;;;10.38;;
17983;SDS011;9117;52.420;20.728;2023-04-24T00:42:47;18.67;;;10.35;;
17983;SDS011;9117;52.420;20.728;2023-04-24T00:45:15;24.65;;;11.40;;
17983;SDS011;9117;52.420;20.728;2023-04-24T00:47:44;16.30;;;9.77;;
17983;SDS011;9117;52.420;20.728;2023-04-24T00:50:14;24.98;;;10.70;;
17983;SDS011;9117;52.420;20.728;2023-04-24T00:52:43;19.70;;;11.07;;
17983;SDS011;9117;52.420;20.728;2023-04-24T00:55:13;16.50;;;9.80;;
17983;SDS011;9117;52.420;20.728;2023-04-24T00:57:41;20.42;;;11.10;;
17983;SDS011;9117;52.420;20.728;2023-04-24T01:00:09;19.92;;;11.57;;
17983;SDS011;9117;52.420;20.728;2023-04-24T01:02:39;17.73;;;10.93;;
17983;SDS011;9117;52.420;20.728;2023-04-24T01:05:10;22.27;;;11.20;;
17983;SDS011;9117;52.420;20.728;2023-04-24T01:07:40;20.00;;;11.35;;
17983;SDS011;9117;52.420;20.728;2023-04-24T01:10:13;18.08;;;11.02;;
17983;SDS011;9117;52.420;20.728;2023-04-24T01:12:43;17.90;;;9.98;;
17983;SDS011;9117;52.420;20.728;2023-04-24T01:15:11;22.42;;;10.45;;
17983;SDS011;9117;52.420;20.728;2023-04-24T01:17:39;16.75;;;10.80;;
17983;SDS011;9117;52.420;20.728;2023-04-24T01:20:08;19.42;;;10.57;;
17983;SDS011;9117;52.420;20.728;2023-04-24T01:22:39;19.30;;;12.05;;
17983;SDS011;9117;52.420;20.728;2023-04-24T01:25:08;18.42;;;11.50;;
17983;SDS011;9117;52.420;20.728;2023-04-24T01:27:36;19.17;;;11.43;;
17983;SDS011;9117;52.420;20.728;2023-04-24T01:30:05;20.70;;;11.57;;
17983;SDS011;9117;52.420;20.728;2023-04-24T01:32:34;20.92;;;11.70;;
17983;SDS011;9117;52.420;20.728;2023-04-24T01:35:04;23.52;;;11.77;;
17983;SDS011;9117;52.420;20.728;2023-04-24T01:37:33;20.77;;;11.43;;
17983;SDS011;9117;52.420;20.728;2023-04-24T01:40:05;23.65;;;11.35;;
17983;SDS011;9117;52.420;20.728;2023-04-24T01:42:35;18.90;;;11.05;;
17983;SDS011;9117;52.420;20.728;2023-04-24T01:45:04;22.30;;;11.95;;
17983;SDS011;9117;52.420;20.728;2023-04-24T01:47:33;20.00;;;11.32;;
17983;SDS011;9117;52.420;20.728;2023-04-24T01:50:01;19.65;;;11.43;;
17983;SDS011;9117;52.420;20.728;2023-04-24T01:52:30;17.17;;;10.55;;
17983;SDS011;9117;52.420;20.728;2023-04-24T01:54:59;19.52;;;11.32;;
17983;SDS011;9117;52.420;20.728;2023-04-24T01:57:29;21.70;;;10.93;;
17983;SDS011;9117;52.420;20.728;2023-04-24T01:59:58;22.00;;;12.05;;
17983;SDS011;9117;52.420;20.728;2023-04-24T02:02:26;22.50;;;11.23;;
17983;SDS011;9117;52.420;20.728;2023-04-24T02:04:55;19.33;;;11.48;;
17983;SDS011;9117;52.420;20.728;2023-04-24T02:07:23;19.58;;;12.02;;
17983;SDS011;9117;52.420;20.728;2023-04-24T02:09:51;21.63;;;12.10;;
17983;SDS011;9117;52.420;20.728;2023-04-24T02:12:19;19.00;;;11.93;;
17983;SDS011;9117;52.420;20.728;2023-04-24T02:14:49;26.02;;;12.05;;
17983;SDS011;9117;52.420;20.728;2023-04-24T02:17:17;19.02;;;12.35;;
17983;SDS011;9117;52.420;20.728;2023-04-24T02:19:45;20.38;;;11.90;;
17983;SDS011;9117;52.420;20.728;2023-04-24T02:22:14;27.38;;;12.70;;
17983;SDS011;9117;52.420;20.728;2023-04-24T02:24:42;19.85;;;11.93;;
17983;SDS011;9117;52.420;20.728;2023-04-24T02:27:10;20.30;;;12.32;;
17983;SDS011;9117;52.420;20.728;2023-04-24T02:29:39;22.92;;;13.15;;
17983;SDS011;9117;52.420;20.728;2023-04-24T02:32:08;22.15;;;13.13;;
17983;SDS011;9117;52.420;20.728;2023-04-24T02:34:38;21.73;;;13.10;;
17983;SDS011;9117;52.420;20.728;2023-04-24T02:37:06;23.90;;;13.45;;
17983;SDS011;9117;52.420;20.728;2023-04-24T02:39:34;19.63;;;11.90;;
17983;SDS011;9117;52.420;20.728;2023-04-24T02:42:03;21.23;;;12.85;;
17983;SDS011;9117;52.420;20.728;2023-04-24T02:44:31;19.52;;;11.77;;
17983;SDS011;9117;52.420;20.728;2023-04-24T02:46:59;23.88;;;13.63;;
17983;SDS011;9117;52.420;20.728;2023-04-24T02:49:29;26.15;;;13.43;;
17983;SDS011;9117;52.420;20.728;2023-04-24T02:51:57;22.67;;;13.27;;
17983;SDS011;9117;52.420;20.728;2023-04-24T02:54:25;25.77;;;13.35;;
17983;SDS011;9117;52.420;20.728;2023-04-24T02:56:53;20.38;;;12.15;;
17983;SDS011;9117;52.420;20.728;2023-04-24T02:59:23;22.80;;;12.70;;
17983;SDS011;9117;52.420;20.728;2023-04-24T03:01:53;22.73;;;13.05;;
17983;SDS011;9117;52.420;20.728;2023-04-24T03:04:21;27.48;;;12.55;;
17983;SDS011;9117;52.420;20.728;2023-04-24T03:06:51;28.20;;;12.95;;
17983;SDS011;9117;52.420;20.728;2023-04-24T03:09:21;26.95;;;13.32;;
17983;SDS011;9117;52.420;20.728;2023-04-24T03:11:49;27.52;;;13.50;;
17983;SDS011;9117;52.420;20.728;2023-04-24T03:14:17;22.83;;;13.38;;
17983;SDS011;9117;52.420;20.728;2023-04-24T03:16:45;22.35;;;12.82;;
17983;SDS011;9117;52.420;20.728;2023-04-24T03:19:13;27.98;;;14.05;;
17983;SDS011;9117;52.420;20.728;2023-04-24T03:21:41;24.90;;;13.27;;
17983;SDS011;9117;52.420;20.728;2023-04-24T03:24:11;23.60;;;13.73;;
17983;SDS011;9117;52.420;20.728;2023-04-24T03:26:39;28.95;;;13.90;;
17983;SDS011;9117;52.420;20.728;2023-04-24T03:29:07;25.45;;;13.85;;
17983;SDS011;9117;52.420;20.728;2023-04-24T03:31:36;34.70;;;14.10;;
17983;SDS011;9117;52.420;20.728;2023-04-24T03:34:04;26.88;;;13.93;;
17983;SDS011;9117;52.420;20.728;2023-04-24T03:36:32;32.22;;;13.55;;
17983;SDS011;9117;52.420;20.728;2023-04-24T03:39:00;31.10;;;13.05;;
17983;SDS011;9117;52.420;20.728;2023-04-24T03:41:30;27.30;;;13.63;;
17983;SDS011;9117;52.420;20.728;2023-04-24T03:43:58;28.98;;;13.73;;
17983;SDS011;9117;52.420;20.728;2023-04-24T03:46:26;32.80;;;14.20;;
17983;SDS011;9117;52.420;20.728;2023-04-24T03:48:55;30.90;;;14.18;;
17983;SDS011;9117;52.420;20.728;2023-04-24T03:51:23;36.22;;;15.15;;
17983;SDS011;9117;52.420;20.728;2023-04-24T03:53:54;34.58;;;14.98;;
17983;SDS011;9117;52.420;20.728;2023-04-24T03:56:22;33.50;;;15.35;;
17983;SDS011;9117;52.420;20.728;2023-04-24T03:58:51;36.00;;;16.08;;
17983;SDS011;9117;52.420;20.728;2023-04-24T04:01:20;31.38;;;15.70;;
17983;SDS011;9117;52.420;20.728;2023-04-24T04:03:48;32.83;;;15.57;;
17983;SDS011;9117;52.420;20.728;2023-04-24T04:06:17;30.17;;;14.82;;
17983;SDS011;9117;52.420;20.728;2023-04-24T04:08:45;30.88;;;14.32;;
17983;SDS011;9117;52.420;20.728;2023-04-24T04:11:13;32.05;;;15.07;;
17983;SDS011;9117;52.420;20.728;2023-04-24T04:13:42;30.88;;;14.60;;
17983;SDS011;9117;52.420;20.728;2023-04-24T04:16:11;47.90;;;25.02;;
17983;SDS011;9117;52.420;20.728;2023-04-24T04:18:39;30.75;;;15.65;;
17983;SDS011;9117;52.420;20.728;2023-04-24T04:21:08;26.70;;;15.27;;
17983;SDS011;9117;52.420;20.728;2023-04-24T04:23:36;26.42;;;14.30;;
17983;SDS011;9117;52.420;20.728;2023-04-24T04:26:04;29.63;;;15.65;;
17983;SDS011;9117;52.420;20.728;2023-04-24T04:28:32;30.25;;;14.55;;
17983;SDS011;9117;52.420;20.728;2023-04-24T04:31:01;34.47;;;14.88;;
17983;SDS011;9117;52.420;20.728;2023-04-24T04:33:31;35.08;;;15.20;;
17983;SDS011;9117;52.420;20.728;2023-04-24T04:35:59;37.40;;;16.17;;
17983;SDS011;9117;52.420;20.728;2023-04-24T04:38:28;34.25;;;15.48;;
17983;SDS011;9117;52.420;20.728;2023-04-24T04:40:57;37.22;;;15.60;;
17983;SDS011;9117;52.420;20.728;2023-04-24T04:43:25;43.63;;;15.65;;
17983;SDS011;9117;52.420;20.728;2023-04-24T04:45:54;39.85;;;15.50;;
17983;SDS011;9117;52.420;20.728;2023-04-24T04:48:22;33.47;;;16.05;;
17983;SDS011;9117;52.420;20.728;2023-04-24T04:50:52;31.55;;;16.13;;
17983;SDS011;9117;52.420;20.728;2023-04-24T04:53:20;38.97;;;16.40;;
17983;SDS011;9117;52.420;20.728;2023-04-24T04:55:48;37.72;;;16.63;;
17983;SDS011;9117;52.420;20.728;2023-04-24T04:58:16;44.25;;;17.92;;
17983;SDS011;9117;52.420;20.728;2023-04-24T05:00:44;32.65;;;17.77;;
17983;SDS011;9117;52.420;20.728;2023-04-24T05:03:12;38.90;;;16.48;;
17983;SDS011;9117;52.420;20.728;2023-04-24T05:05:47;25.85;;;12.88;;
17983;SDS011;9117;52.420;20.728;2023-04-24T05:08:17;24.83;;;13.50;;
17983;SDS011;9117;52.420;20.728;2023-04-24T05:10:53;20.08;;;12.15;;
17983;SDS011;9117;52.420;20.728;2023-04-24T05:13:21;20.98;;;12.30;;
17983;SDS011;9117;52.420;20.728;2023-04-24T05:15:52;21.00;;;12.65;;
17983;SDS011;9117;52.420;20.728;2023-04-24T05:18:20;18.83;;;12.05;;
17983;SDS011;9117;52.420;20.728;2023-04-24T05:20:49;27.40;;;12.68;;
17983;SDS011;9117;52.420;20.728;2023-04-24T05:23:18;19.80;;;12.13;;
17983;SDS011;9117;52.420;20.728;2023-04-24T05:25:46;21.77;;;12.05;;
17983;SDS011;9117;52.420;20.728;2023-04-24T05:28:14;17.77;;;11.75;;
17983;SDS011;9117;52.420;20.728;2023-04-24T05:30:43;18.10;;;11.85;;
17983;SDS011;9117;52.420;20.728;2023-04-24T05:33:11;22.40;;;11.45;;
17983;SDS011;9117;52.420;20.728;2023-04-24T05:35:40;21.42;;;12.30;;
17983;SDS011;9117;52.420;20.728;2023-04-24T05:38:12;22.77;;;12.85;;
17983;SDS011;9117;52.420;20.728;2023-04-24T05:40:42;19.70;;;12.27;;
17983;SDS011;9117;52.420;20.728;2023-04-24T05:43:10;18.45;;;11.27;;
17983;SDS011;9117;52.420;20.728;2023-04-24T05:45:38;20.30;;;11.90;;
17983;SDS011;9117;52.420;20.728;2023-04-24T05:48:06;19.48;;;11.73;;
17983;SDS011;9117;52.420;20.728;2023-04-24T05:50:34;20.25;;;11.95;;
17983;SDS011;9117;52.420;20.728;2023-04-24T05:53:03;20.77;;;12.23;;
17983;SDS011;9117;52.420;20.728;2023-04-24T05:55:33;22.45;;;11.55;;
17983;SDS011;9117;52.420;20.728;2023-04-24T05:58:03;21.13;;;12.25;;
17983;SDS011;9117;52.420;20.728;2023-04-24T06:00:31;21.88;;;11.63;;
17983;SDS011;9117;52.420;20.728;2023-04-24T06:03:00;20.23;;;11.98;;
17983;SDS011;9117;52.420;20.728;2023-04-24T06:05:30;19.88;;;11.88;;
17983;SDS011;9117;52.420;20.728;2023-04-24T06:07:58;17.80;;;10.85;;
17983;SDS011;9117;52.420;20.728;2023-04-24T06:10:26;16.40;;;10.93;;
17983;SDS011;9117;52.420;20.728;2023-04-24T06:12:55;18.80;;;11.15;;
17983;SDS011;9117;52.420;20.728;2023-04-24T06:15:29;19.05;;;10.70;;
17983;SDS011;9117;52.420;20.728;2023-04-24T06:17:58;22.52;;;11.23;;
17983;SDS011;9117;52.420;20.728;2023-04-24T06:20:26;26.38;;;12.05;;
17983;SDS011;9117;52.420;20.728;2023-04-24T06:22:54;18.50;;;10.45;;
17983;SDS011;9117;52.420;20.728;2023-04-24T06:25:24;20.55;;;11.07;;
17983;SDS011;9117;52.420;20.728;2023-04-24T06:27:52;25.10;;;12.05;;
17983;SDS011;9117;52.420;20.728;2023-04-24T06:30:22;20.83;;;10.93;;
17983;SDS011;9117;52.420;20.728;2023-04-24T06:32:52;19.23;;;10.80;;
17983;SDS011;9117;52.420;20.728;2023-04-24T06:35:25;19.80;;;10.98;;
17983;SDS011;9117;52.420;20.728;2023-04-24T06:37:54;20.33;;;10.52;;
17983;SDS011;9117;52.420;20.728;2023-04-24T06:40:23;16.27;;;10.57;;
17983;SDS011;9117;52.420;20.728;2023-04-24T06:42:51;15.85;;;10.15;;
17983;SDS011;9117;52.420;20.728;2023-04-24T06:45:19;19.35;;;10.25;;
17983;SDS011;9117;52.420;20.728;2023-04-24T06:47:47;20.52;;;10.68;;
17983;SDS011;9117;52.420;20.728;2023-04-24T06:50:18;19.77;;;10.40;;
17983;SDS011;9117;52.420;20.728;2023-04-24T06:52:46;19.65;;;10.48;;
17983;SDS011;9117;52.420;20.728;2023-04-24T06:55:14;15.70;;;10.60;;
17983;SDS011;9117;52.420;20.728;2023-04-24T06:57:43;21.30;;;11.80;;
17983;SDS011;9117;52.420;20.728;2023-04-24T07:00:12;17.98;;;10.60;;
17983;SDS011;9117;52.420;20.728;2023-04-24T07:02:41;18.13;;;9.90;;
17983;SDS011;9117;52.420;20.728;2023-04-24T07:05:10;17.75;;;10.27;;
17983;SDS011;9117;52.420;20.728;2023-04-24T07:07:40;18.60;;;10.13;;
17983;SDS011;9117;52.420;20.728;2023-04-24T07:10:09;16.98;;;9.93;;
17983;SDS011;9117;52.420;20.728;2023-04-24T07:12:37;19.70;;;10.75;;
17983;SDS011;9117;52.420;20.728;2023-04-24T07:15:06;16.98;;;8.98;;
17983;SDS011;9117;52.420;20.728;2023-04-24T07:17:35;16.85;;;9.43;;
17983;SDS011;9117;52.420;20.728;2023-04-24T07:20:05;17.00;;;9.82;;
17983;SDS011;9117;52.420;20.728;2023-04-24T07:22:35;16.63;;;9.98;;
17983;SDS011;9117;52.420;20.728;2023-04-24T07:25:06;16.02;;;9.32;;
17983;SDS011;9117;52.420;20.728;2023-04-24T07:27:35;14.48;;;9.68;;
17983;SDS011;9117;52.420;20.728;2023-04-24T07:30:04;19.75;;;9.75;;
17983;SDS011;9117;52.420;20.728;2023-04-24T07:32:33;16.80;;;9.55;;
17983;SDS011;9117;52.420;20.728;2023-04-24T07:35:01;16.77;;;9.40;;
17983;SDS011;9117;52.420;20.728;2023-04-24T07:37:30;18.00;;;9.48;;
17983;SDS011;9117;52.420;20.728;2023-04-24T07:39:58;22.15;;;9.05;;
17983;SDS011;9117;52.420;20.728;2023-04-24T07:42:30;18.33;;;9.40;;
17983;SDS011;9117;52.420;20.728;2023-04-24T07:45:00;19.15;;;9.50;;
17983;SDS011;9117;52.420;20.728;2023-04-24T07:47:29;24.60;;;9.23;;
17983;SDS011;9117;52.420;20.728;2023-04-24T07:49:57;17.73;;;9.05;;
17983;SDS011;9117;52.420;20.728;2023-04-24T07:52:26;17.35;;;8.48;;
17983;SDS011;9117;52.420;20.728;2023-04-24T07:54:55;15.18;;;8.75;;
17983;SDS011;9117;52.420;20.728;2023-04-24T07:57:24;16.35;;;8.73;;
17983;SDS011;9117;52.420;20.728;2023-04-24T07:59:54;14.65;;;8.77;;
17983;SDS011;9117;52.420;20.728;2023-04-24T08:02:22;18.65;;;8.15;;
17983;SDS011;9117;52.420;20.728;2023-04-24T08:04:53;17.17;;;8.25;;
17983;SDS011;9117;52.420;20.728;2023-04-24T08:07:23;15.05;;;8.57;;
17983;SDS011;9117;52.420;20.728;2023-04-24T08:09:51;14.90;;;7.82;;
17983;SDS011;9117;52.420;20.728;2023-04-24T08:12:20;15.40;;;9.18;;
17983;SDS011;9117;52.420;20.728;2023-04-24T08:14:48;14.70;;;8.43;;
17983;SDS011;9117;52.420;20.728;2023-04-24T08:17:18;16.85;;;8.98;;
17983;SDS011;9117;52.420;20.728;2023-04-24T08:19:46;13.88;;;8.48;;
17983;SDS011;9117;52.420;20.728;2023-04-24T08:22:14;16.65;;;8.05;;
17983;SDS011;9117;52.420;20.728;2023-04-24T08:24:43;17.25;;;8.77;;
17983;SDS011;9117;52.420;20.728;2023-04-24T08:27:11;16.73;;;8.07;;
17983;SDS011;9117;52.420;20.728;2023-04-24T08:29:39;15.95;;;8.25;;
17983;SDS011;9117;52.420;20.728;2023-04-24T08:32:07;16.35;;;8.27;;
17983;SDS011;9117;52.420;20.728;2023-04-24T08:34:37;12.68;;;7.57;;
17983;SDS011;9117;52.420;20.728;2023-04-24T08:37:05;14.38;;;7.30;;
17983;SDS011;9117;52.420;20.728;2023-04-24T08:39:34;12.20;;;7.40;;
17983;SDS011;9117;52.420;20.728;2023-04-24T08:42:02;9.63;;;6.70;;
17983;SDS011;9117;52.420;20.728;2023-04-24T08:44:34;11.95;;;7.20;;
17983;SDS011;9117;52.420;20.728;2023-04-24T08:47:03;11.38;;;6.90;;
17983;SDS011;9117;52.420;20.728;2023-04-24T08:49:32;10.52;;;6.28;;
17983;SDS011;9117;52.420;20.728;2023-04-24T08:52:04;10.55;;;7.53;;
17983;SDS011;9117;52.420;20.728;2023-04-24T08:54:33;13.82;;;7.63;;
17983;SDS011;9117;52.420;20.728;2023-04-24T08:57:02;12.10;;;7.20;;
17983;SDS011;9117;52.420;20.728;2023-04-24T08:59:35;10.85;;;7.57;;
17983;SDS011;9117;52.420;20.728;2023-04-24T09:02:05;11.60;;;7.18;;
17983;SDS011;9117;52.420;20.728;2023-04-24T09:04:38;12.63;;;6.95;;
17983;SDS011;9117;52.420;20.728;2023-04-24T09:07:09;12.35;;;7.78;;
17983;SDS011;9117;52.420;20.728;2023-04-24T09:09:39;10.32;;;6.43;;
17983;SDS011;9117;52.420;20.728;2023-04-24T09:12:09;12.85;;;7.00;;
17983;SDS011;9117;52.420;20.728;2023-04-24T09:14:39;12.07;;;7.00;;
17983;SDS011;9117;52.420;20.728;2023-04-24T09:17:11;15.40;;;5.85;;
17983;SDS011;9117;52.420;20.728;2023-04-24T09:19:40;8.70;;;5.78;;
17983;SDS011;9117;52.420;20.728;2023-04-24T09:22:13;8.70;;;5.78;;
17983;SDS011;9117;52.420;20.728;2023-04-24T09:24:42;9.15;;;5.90;;
17983;SDS011;9117;52.420;20.728;2023-04-24T09:27:13;9.32;;;6.50;;
17983;SDS011;9117;52.420;20.728;2023-04-24T09:29:53;10.13;;;6.75;;
17983;SDS011;9117;52.420;20.728;2023-04-24T09:32:22;17.67;;;6.53;;
17983;SDS011;9117;52.420;20.728;2023-04-24T09:35:04;14.82;;;6.80;;
17983;SDS011;9117;52.420;20.728;2023-04-24T09:37:39;10.60;;;6.47;;
17983;SDS011;9117;52.420;20.728;2023-04-24T09:40:09;9.63;;;6.43;;
17983;SDS011;9117;52.420;20.728;2023-04-24T09:42:39;12.07;;;6.13;;
17983;SDS011;9117;52.420;20.728;2023-04-24T09:45:10;9.35;;;6.10;;
17983;SDS011;9117;52.420;20.728;2023-04-24T09:47:42;11.65;;;6.10;;
17983;SDS011;9117;52.420;20.728;2023-04-24T09:50:11;12.60;;;6.40;;
17983;SDS011;9117;52.420;20.728;2023-04-24T09:52:44;11.65;;;6.07;;
17983;SDS011;9117;52.420;20.728;2023-04-24T09:55:15;10.23;;;6.70;;
17983;SDS011;9117;52.420;20.728;2023-04-24T09:57:48;8.95;;;5.80;;
17983;SDS011;9117;52.420;20.728;2023-04-24T10:00:24;9.35;;;5.57;;
17983;SDS011;9117;52.420;20.728;2023-04-24T10:03:00;10.82;;;5.80;;
17983;SDS011;9117;52.420;20.728;2023-04-24T10:05:30;10.38;;;6.00;;
17983;SDS011;9117;52.420;20.728;2023-04-24T10:08:02;9.50;;;6.20;;
17983;SDS011;9117;52.420;20.728;2023-04-24T10:10:32;11.30;;;6.40;;
17983;SDS011;9117;52.420;20.728;2023-04-24T10:13:01;16.30;;;6.63;;
17983;SDS011;9117;52.420;20.728;2023-04-24T10:15:30;12.45;;;6.75;;
17983;SDS011;9117;52.420;20.728;2023-04-24T10:17:59;12.05;;;6.93;;
17983;SDS011;9117;52.420;20.728;2023-04-24T10:20:28;11.57;;;6.20;;
17983;SDS011;9117;52.420;20.728;2023-04-24T10:22:58;11.07;;;6.63;;
17983;SDS011;9117;52.420;20.728;2023-04-24T10:25:29;9.02;;;6.18;;
17983;SDS011;9117;52.420;20.728;2023-04-24T10:27:58;8.57;;;6.32;;
17983;SDS011;9117;52.420;20.728;2023-04-24T10:30:28;13.23;;;6.18;;
17983;SDS011;9117;52.420;20.728;2023-04-24T10:33:01;8.10;;;5.90;;
17983;SDS011;9117;52.420;20.728;2023-04-24T10:35:30;11.35;;;6.50;;
17983;SDS011;9117;52.420;20.728;2023-04-24T10:38:01;15.02;;;6.22;;
17983;SDS011;9117;52.420;20.728;2023-04-24T10:40:35;14.43;;;6.93;;
17983;SDS011;9117;52.420;20.728;2023-04-24T10:43:04;15.50;;;6.80;;
17983;SDS011;9117;52.420;20.728;2023-04-24T10:45:35;13.15;;;5.63;;
17983;SDS011;9117;52.420;20.728;2023-04-24T10:48:05;8.75;;;6.47;;
17983;SDS011;9117;52.420;20.728;2023-04-24T10:50:44;15.55;;;6.40;;
17983;SDS011;9117;52.420;20.728;2023-04-24T10:53:14;10.23;;;6.70;;
17983;SDS011;9117;52.420;20.728;2023-04-24T10:55:46;8.90;;;5.80;;
17983;SDS011;9117;52.420;20.728;2023-04-24T10:58:15;8.85;;;5.38;;
17983;SDS011;9117;52.420;20.728;2023-04-24T11:00:48;11.75;;;5.53;;
17983;SDS011;9117;52.420;20.728;2023-04-24T11:03:25;13.30;;;5.80;;
17983;SDS011;9117;52.420;20.728;2023-04-24T11:05:56;46.05;;;6.85;;
17983;SDS011;9117;52.420;20.728;2023-04-24T11:08:27;16.77;;;5.88;;
17983;SDS011;9117;52.420;20.728;2023-04-24T11:10:59;10.63;;;5.15;;
17983;SDS011;9117;52.420;20.728;2023-04-24T11:16:29;8.27;;;5.10;;
17983;SDS011;9117;52.420;20.728;2023-04-24T11:19:01;8.57;;;5.60;;
17983;SDS011;9117;52.420;20.728;2023-04-24T11:21:31;12.55;;;5.75;;
17983;SDS011;9117;52.420;20.728;2023-04-24T11:26:54;12.45;;;6.10;;
17983;SDS011;9117;52.420;20.728;2023-04-24T11:29:38;9.10;;;5.32;;
17983;SDS011;9117;52.420;20.728;2023-04-24T11:32:14;14.65;;;5.45;;
17983;SDS011;9117;52.420;20.728;2023-04-24T11:34:45;8.95;;;5.57;;
17983;SDS011;9117;52.420;20.728;2023-04-24T11:37:15;10.18;;;5.25;;
17983;SDS011;9117;52.420;20.728;2023-04-24T11:39:43;9.35;;;5.25;;
17983;SDS011;9117;52.420;20.728;2023-04-24T11:42:14;9.30;;;4.40;;
17983;SDS011;9117;52.420;20.728;2023-04-24T11:44:43;13.85;;;4.50;;
17983;SDS011;9117;52.420;20.728;2023-04-24T11:47:13;6.25;;;3.85;;
17983;SDS011;9117;52.420;20.728;2023-04-24T11:49:42;8.48;;;4.38;;
17983;SDS011;9117;52.420;20.728;2023-04-24T11:52:10;7.22;;;3.83;;
17983;SDS011;9117;52.420;20.728;2023-04-24T11:54:46;7.53;;;3.95;;
17983;SDS011;9117;52.420;20.728;2023-04-24T11:57:20;11.20;;;4.60;;
17983;SDS011;9117;52.420;20.728;2023-04-24T11:59:49;7.55;;;3.78;;
17983;SDS011;9117;52.420;20.728;2023-04-24T12:02:21;6.00;;;3.85;;
17983;SDS011;9117;52.420;20.728;2023-04-24T12:04:51;6.90;;;4.10;;
17983;SDS011;9117;52.420;20.728;2023-04-24T12:07:20;8.45;;;4.47;;
17983;SDS011;9117;52.420;20.728;2023-04-24T12:09:54;9.80;;;4.68;;
17983;SDS011;9117;52.420;20.728;2023-04-24T12:12:26;7.95;;;4.72;;
17983;SDS011;9117;52.420;20.728;2023-04-24T12:14:55;8.45;;;4.75;;
17983;SDS011;9117;52.420;20.728;2023-04-24T12:17:26;7.65;;;5.00;;
17983;SDS011;9117;52.420;20.728;2023-04-24T12:19:58;8.65;;;4.80;;
17983;SDS011;9117;52.420;20.728;2023-04-24T12:22:42;11.98;;;5.10;;
17983;SDS011;9117;52.420;20.728;2023-04-24T12:25:12;9.23;;;4.93;;
17983;SDS011;9117;52.420;20.728;2023-04-24T12:27:42;9.43;;;5.57;;
17983;SDS011;9117;52.420;20.728;2023-04-24T12:30:12;7.80;;;4.80;;
17983;SDS011;9117;52.420;20.728;2023-04-24T12:32:42;8.75;;;4.93;;
17983;SDS011;9117;52.420;20.728;2023-04-24T12:35:11;9.82;;;4.65;;
17983;SDS011;9117;52.420;20.728;2023-04-24T12:37:41;9.60;;;4.78;;
17983;SDS011;9117;52.420;20.728;2023-04-24T12:40:13;7.90;;;4.65;;
17983;SDS011;9117;52.420;20.728;2023-04-24T12:42:43;7.72;;;4.72;;
17983;SDS011;9117;52.420;20.728;2023-04-24T12:45:13;6.85;;;4.50;;
17983;SDS011;9117;52.420;20.728;2023-04-24T12:47:42;8.02;;;4.32;;
17983;SDS011;9117;52.420;20.728;2023-04-24T12:50:12;9.43;;;4.78;;
17983;SDS011;9117;52.420;20.728;2023-04-24T12:52:44;12.57;;;4.97;;
17983;SDS011;9117;52.420;20.728;2023-04-24T12:55:13;6.78;;;4.45;;
17983;SDS011;9117;52.420;20.728;2023-04-24T12:57:42;12.68;;;5.05;;
17983;SDS011;9117;52.420;20.728;2023-04-24T13:00:11;13.57;;;4.75;;
17983;SDS011;9117;52.420;20.728;2023-04-24T13:02:40;10.93;;;4.43;;
17983;SDS011;9117;52.420;20.728;2023-04-24T13:05:08;15.02;;;5.15;;
17983;SDS011;9117;52.420;20.728;2023-04-24T13:07:38;7.28;;;4.47;;
17983;SDS011;9117;52.420;20.728;2023-04-24T13:10:06;10.52;;;4.90;;
17983;SDS011;9117;52.420;20.728;2023-04-24T13:12:35;14.50;;;5.15;;
17983;SDS011;9117;52.420;20.728;2023-04-24T13:15:06;13.10;;;4.80;;
17983;SDS011;9117;52.420;20.728;2023-04-24T13:17:34;9.07;;;4.43;;
17983;SDS011;9117;52.420;20.728;2023-04-24T13:20:03;15.82;;;4.47;;
17983;SDS011;9117;52.420;20.728;2023-04-24T13:22:32;20.58;;;4.82;;
17983;SDS011;9117;52.420;20.728;2023-04-24T13:25:00;16.95;;;3.88;;
17983;SDS011;9117;52.420;20.728;2023-04-24T13:27:29;17.55;;;3.80;;
17983;SDS011;9117;52.420;20.728;2023-04-24T13:29:57;12.15;;;3.72;;
17983;SDS011;9117;52.420;20.728;2023-04-24T13:32:27;7.93;;;4.00;;
17983;SDS011;9117;52.420;20.728;2023-04-24T13:34:56;7.82;;;4.10;;
17983;SDS011;9117;52.420;20.728;2023-04-24T13:37:24;9.18;;;3.97;;
17983;SDS011;9117;52.420;20.728;2023-04-24T13:39:52;7.15;;;4.03;;
17983;SDS011;9117;52.420;20.728;2023-04-24T13:42:20;15.20;;;4.50;;
17983;SDS011;9117;52.420;20.728;2023-04-24T13:44:49;9.38;;;3.88;;
17983;SDS011;9117;52.420;20.728;2023-04-24T13:47:17;8.43;;;3.65;;
17983;SDS011;9117;52.420;20.728;2023-04-24T13:49:47;7.38;;;3.75;;
17983;SDS011;9117;52.420;20.728;2023-04-24T13:52:16;6.65;;;3.33;;
17983;SDS011;9117;52.420;20.728;2023-04-24T13:54:44;10.23;;;3.97;;
17983;SDS011;9117;52.420;20.728;2023-04-24T13:57:13;7.88;;;3.58;;
17983;SDS011;9117;52.420;20.728;2023-04-24T13:59:42;9.57;;;3.70;;
17983;SDS011;9117;52.420;20.728;2023-04-24T14:02:11;10.15;;;3.72;;
17983;SDS011;9117;52.420;20.728;2023-04-24T14:04:39;9.70;;;3.97;;
17983;SDS011;9117;52.420;20.728;2023-04-24T14:07:09;5.07;;;3.67;;
17983;SDS011;9117;52.420;20.728;2023-04-24T14:09:37;6.35;;;3.42;;
17983;SDS011;9117;52.420;20.728;2023-04-24T14:12:06;5.43;;;3.60;;
17983;SDS011;9117;52.420;20.728;2023-04-24T14:14:34;6.30;;;3.35;;
17983;SDS011;9117;52.420;20.728;2023-04-24T14:17:02;4.60;;;3.65;;
17983;SDS011;9117;52.420;20.728;2023-04-24T14:19:30;9.15;;;3.53;;
17983;SDS011;9117;52.420;20.728;2023-04-24T14:21:59;6.55;;;3.58;;
17983;SDS011;9117;52.420;20.728;2023-04-24T14:24:29;8.40;;;3.47;;
17983;SDS011;9117;52.420;20.728;2023-04-24T14:26:57;5.80;;;3.40;;
17983;SDS011;9117;52.420;20.728;2023-04-24T14:29:25;5.93;;;3.78;;
17983;SDS011;9117;52.420;20.728;2023-04-24T14:31:53;6.35;;;3.58;;
17983;SDS011;9117;52.420;20.728;2023-04-24T14:34:22;6.47;;;3.85;;
17983;SDS011;9117;52.420;20.728;2023-04-24T14:36:50;5.30;;;3.92;;
17983;SDS011;9117;52.420;20.728;2023-04-24T14:39:18;5.53;;;3.95;;
17983;SDS011;9117;52.420;20.728;2023-04-24T14:41:48;9.00;;;3.70;;
17983;SDS011;9117;52.420;20.728;2023-04-24T14:44:16;8.57;;;4.13;;
17983;SDS011;9117;52.420;20.728;2023-04-24T14:46:44;7.40;;;4.15;;
17983;SDS011;9117;52.420;20.728;2023-04-24T14:49:13;8.20;;;4.20;;